Thursday, March 23, 2017, 12:13 AM EDT
Back to Local

KAGC, Pittsburgh Allegheny Cty.

Location: West Mifflin, PA, United States Lat: 40.35
Local Time: 12:13 AM EDT ( 4:13 GMT) Lon: -79.917
Time Zone: US/Eastern Elev: 1253 ft

Show me the last for .
Show Decoded

2017-03-22 23:53 METAR KAGC 230353Z 35008KT 10SM CLR M04/M13 A3048 RMK AO2 SLP342 T10391133 =
2017-03-22 22:53 METAR KAGC 230253Z 34006KT 10SM CLR M03/M13 A3047 RMK AO2 SLP341 T10331133 51012
                 =
2017-03-22 21:53 METAR KAGC 230153Z 35008KT 10SM CLR M02/M14 A3047 RMK AO2 SLP341 T10221144 =
2017-03-22 20:53 METAR KAGC 230053Z 34010KT 10SM CLR M01/M17 A3045 RMK AO2 SLP333 T10111167 =
2017-03-22 19:53 METAR KAGC 222353Z 34009KT 10SM CLR M01/M17 A3044 RMK AO2 SLP328 T10061167 10033
                 21006 53016 =
2017-03-22 18:53 METAR KAGC 222253Z 32007G15KT 10SM CLR 02/M17 A3043 RMK AO2 SLP322 T00171172 =
2017-03-22 17:53 METAR KAGC 222153Z 35010G18KT 10SM CLR 02/M17 A3040 RMK AO2 SLP312 T00221172 =
2017-03-22 16:53 METAR KAGC 222053Z 30008G17KT 10SM CLR 03/M17 A3039 RMK AO2 SLP309 T00281167
                 55004 =
2017-03-22 15:53 METAR KAGC 221953Z 34009KT 10SM CLR 03/M16 A3038 RMK AO2 SLP305 T00331156 =
2017-03-22 14:53 METAR KAGC 221853Z 33013G23KT 10SM CLR 02/M16 A3039 RMK AO2 SLP309 T00171161 =
2017-03-22 13:53 METAR KAGC 221753Z 34009G18KT 10SM CLR 02/M15 A3040 RMK AO2 SLP312 60000
                 T00171150 10022 21028 51010 =
2017-03-22 12:53 METAR KAGC 221653Z 34013G20KT 10SM CLR 01/M13 A3040 RMK AO2 SLP310 T00061133 =
2017-03-22 11:53 METAR KAGC 221553Z 35011G19KT 10SM CLR 00/M13 A3039 RMK AO2 SLP308 T00001133 =
2017-03-22 10:53 METAR KAGC 221453Z 36010G19KT 10SM SCT033 M01/M12 A3037 RMK AO2 SLP298 60000
                 T10111117 53027 =
2017-03-22 09:53 METAR KAGC 221353Z 34011G20KT 10SM SCT029 OVC037 M02/M11 A3034 RMK AO2 SLP287
                 T10221106 =
2017-03-22 08:53 METAR KAGC 221253Z 34010G20KT 10SM SCT035 BKN042 M02/M10 A3031 RMK AO2 SNB24E35
                 SLP277 P0000 T10221100 =
2017-03-22 07:53 METAR KAGC 221153Z 33008KT 10SM OVC044 M03/M11 A3029 RMK AO2 SLP269 T10281111
                 10006 21028 51032 =
2017-03-22 06:53 METAR KAGC 221053Z AUTO 32011G26KT 10SM OVC037 M03/M12 A3026 RMK AO2 PK WND
                 33026/1046 SLP260 T10281117 =
2017-03-22 05:53 METAR KAGC 220953Z AUTO 33012G19KT 10SM OVC039 M02/M11 A3023 RMK AO2 PK WND
                 35026/0859 SLP248 T10221111 =
2017-03-22 04:53 METAR KAGC 220853Z AUTO 34017G25KT 10SM BKN037 M02/M11 A3019 RMK AO2 PK WND
                 34030/0831 SLP234 T10171106 53031 =
2017-03-22 03:53 METAR KAGC 220753Z 33016G25KT 10SM OVC035 M01/M08 A3015 RMK AO2 PK WND
                 36027/0716 SLP221 T10061083 =
2017-03-22 03:19 METAR KAGC 220719Z 33013G27KT 10SM OVC031 00/M08 A3014 RMK AO2 PK WND 36027/0716
                 T00001078 =
2017-03-22 02:53 METAR KAGC 220653Z 35010G22KT 10SM OVC027 01/M06 A3012 RMK AO2 PK WND 33027/0625
                 SLP211 T00061061 =
2017-03-22 02:40 METAR KAGC 220640Z 34014G21KT 10SM BKN027 01/M06 A3012 RMK AO2 PK WND 33027/0625
                 T00061061 =
2017-03-22 01:53 METAR KAGC 220553Z 34013G29KT 10SM CLR 01/M06 A3009 RMK AO2 PK WND 30029/0551
                 SLP201 T00061061 10122 20006 53038 =
2017-03-22 00:53 METAR KAGC 220453Z 34012G24KT 10SM CLR 03/M06 A3005 RMK AO2 SLP185 T00281056
                 401560028 =

Support USWX by starting your Amazon purchase here.